Time;durP1;ratioP1;P1;durP2;ratioP2;P2;SDS_P1;SDS_P2;PMS_P1;PMS_P2;Temp;Humidity;BMP_temperature;BMP_pressure;BME280_temperature;BME280_humidity;BME280_pressure;Samples;Min_cycle;Max_cycle;Signal;HPM_P1;HPM_P2
2022/04/20 00:00:39;;;;;;;16.67;9.88;;;;;;;3.85;86.75;99599.41;5110839;28;20671;-37
2022/04/20 00:03:05;;;;;;;15.05;9.18;;;;;;;3.86;86.73;99593.13;5111041;28;20038;-37
2022/04/20 00:05:33;;;;;;;17.05;10.43;;;;;;;3.91;85.77;99598.75;5110545;28;20475;-37
2022/04/20 00:08:05;;;;;;;16.30;9.77;;;;;;;3.94;86.16;99602.88;5111450;28;20128;-37
2022/04/20 00:10:31;;;;;;;16.27;9.75;;;;;;;4.01;85.27;99605.66;5110825;28;20091;-37
2022/04/20 00:12:57;;;;;;;13.27;9.27;;;;;;;3.83;85.75;99596.09;5111115;28;20436;-37
2022/04/20 00:15:23;;;;;;;14.38;8.68;;;;;;;4.02;84.78;99602.06;5110369;28;20079;-37
2022/04/20 00:17:49;;;;;;;12.90;9.00;;;;;;;4.03;84.65;99596.59;5111980;28;20027;-36
2022/04/20 00:20:14;;;;;;;13.43;8.75;;;;;;;3.90;84.73;99585.72;5114663;28;20438;-37
2022/04/20 00:22:40;;;;;;;12.40;8.30;;;;;;;3.81;85.17;99595.44;5114734;28;20630;-36
2022/04/20 00:25:05;;;;;;;10.98;7.88;;;;;;;3.84;85.19;99602.19;5096190;28;20023;-36
2022/04/20 00:27:35;;;;;;;11.43;7.68;;;;;;;3.88;85.34;99603.50;5114756;28;20027;-36
2022/04/20 00:30:05;;;;;;;10.82;7.70;;;;;;;3.78;84.13;99595.75;5114324;28;20030;-36
2022/04/20 00:32:31;;;;;;;11.10;7.20;;;;;;;3.82;84.94;99612.06;5114267;28;20511;-36
2022/04/20 00:34:57;;;;;;;10.50;7.57;;;;;;;3.79;84.29;99621.13;5114178;28;20049;-36
2022/04/20 00:37:23;;;;;;;11.02;7.53;;;;;;;3.72;84.57;99620.94;5114615;28;20118;-37
2022/04/20 00:39:48;;;;;;;12.20;8.15;;;;;;;3.75;84.70;99621.59;5114416;28;20076;-36
2022/04/20 00:42:14;;;;;;;11.13;7.70;;;;;;;3.78;84.65;99623.91;5113849;28;20019;-36
2022/04/20 00:44:42;;;;;;;10.52;7.57;;;;;;;3.74;83.86;99612.88;5114241;28;20051;-36
2022/04/20 00:47:10;;;;;;;11.75;7.28;;;;;;;3.73;84.39;99616.47;5114152;28;20053;-37
2022/04/20 00:49:36;;;;;;;9.98;7.47;;;;;;;3.71;84.85;99618.44;5114415;28;20099;-37
2022/04/20 00:52:03;;;;;;;10.52;7.22;;;;;;;3.82;83.55;99614.69;5113724;28;20103;-36
2022/04/20 00:54:29;;;;;;;10.02;7.20;;;;;;;3.70;84.17;99608.94;5113824;28;20019;-36
2022/04/20 00:56:55;;;;;;;12.20;7.75;;;;;;;3.78;83.92;99608.94;5114032;28;20019;-36
2022/04/20 00:59:23;;;;;;;10.48;7.35;;;;;;;3.80;83.26;99611.41;5113789;28;20106;-36
2022/04/20 01:01:51;;;;;;;9.38;6.90;;;;;;;3.70;84.12;99606.28;5113992;28;20050;-36
2022/04/20 01:04:16;;;;;;;11.43;6.97;;;;;;;3.70;83.95;99609.75;5113258;28;20051;-36
2022/04/20 01:06:42;;;;;;;9.02;6.57;;;;;;;3.35;85.25;99588.94;5113799;28;20024;-37
2022/04/20 01:09:08;;;;;;;10.25;6.68;;;;;;;3.54;85.21;99614.97;5113747;28;20023;-36
2022/04/20 01:11:34;;;;;;;9.35;6.65;;;;;;;3.36;84.91;99607.19;5113716;28;20490;-36
2022/04/20 01:14:00;;;;;;;9.15;6.55;;;;;;;3.45;85.20;99606.25;5113285;28;20023;-37
2022/04/20 01:16:25;;;;;;;9.07;6.55;;;;;;;3.43;85.50;99605.59;5113497;28;20024;-36
2022/04/20 01:18:53;;;;;;;9.07;6.35;;;;;;;3.47;84.99;99609.53;5113698;28;20023;-36
2022/04/20 01:21:18;;;;;;;8.93;6.25;;;;;;;3.39;85.62;99609.53;5113612;28;20019;-37
2022/04/20 01:23:44;;;;;;;9.02;6.10;;;;;;;3.42;85.21;99600.47;5113183;28;20023;-36
2022/04/20 01:26:10;;;;;;;9.30;6.45;;;;;;;3.46;85.30;99607.88;5113847;28;20084;-36
2022/04/20 01:28:38;;;;;;;9.30;6.32;;;;;;;3.43;85.31;99605.59;5113101;28;20080;-36
2022/04/20 01:31:04;;;;;;;12.27;7.93;;;;;;;3.35;85.89;99613.47;5112934;28;20507;-36
2022/04/20 01:33:30;;;;;;;11.88;7.50;;;;;;;3.33;85.82;99607.50;5113176;28;20108;-36
2022/04/20 01:35:55;;;;;;;11.88;7.47;;;;;;;3.26;85.61;99596.81;5112704;28;20023;-36
2022/04/20 01:38:58;;;;;;;10.05;6.38;;;;;;;3.28;86.13;99599.28;5113216;28;20019;-36
2022/04/20 01:41:24;;;;;;;12.25;7.03;;;;;;;3.22;85.98;99597.28;5113505;28;20116;-37
2022/04/20 01:43:49;;;;;;;11.43;7.40;;;;;;;3.11;85.92;99603.66;5112772;28;20111;-36
2022/04/20 01:46:15;;;;;;;12.02;7.85;;;;;;;3.07;86.38;99602.34;5112695;28;20038;-36
2022/04/20 01:48:41;;;;;;;11.50;7.47;;;;;;;2.94;86.13;99608.03;5113101;28;20027;-36
2022/04/20 01:53:51;;;;;;;12.45;7.75;;;;;;;3.13;86.45;99596.44;5112584;28;20087;-37
2022/04/20 01:56:16;;;;;;;11.90;7.25;;;;;;;3.23;84.80;99598.94;5112941;28;20110;-37
2022/04/20 01:58:41;;;;;;;12.23;6.85;;;;;;;3.09;85.98;99600.38;5112874;28;20016;-36
2022/04/20 02:04:47;;;;;;;9.35;6.30;;;;;;;3.12;85.90;99600.03;5112423;28;20100;-36
2022/04/20 02:07:50;;;;;;;10.02;6.93;;;;;;;3.20;85.54;99597.47;5111992;28;20102;-36
2022/04/20 02:10:16;;;;;;;10.13;6.72;;;;;;;3.13;86.12;99594.63;5112071;28;20146;-36
2022/04/20 02:12:41;;;;;;;12.00;6.72;;;;;;;3.18;85.01;99594.16;5112329;28;20110;-36
2022/04/20 02:18:28;;;;;;;14.15;7.30;;;;;;;3.13;85.52;99597.25;5112175;28;20085;-36
2022/04/20 02:20:53;;;;;;;10.27;7.38;;;;;;;3.07;85.92;99597.09;5112180;28;20048;-37
2022/04/20 02:23:37;;;;;;;13.35;8.50;;;;;;;3.20;85.49;99596.63;5112236;28;20087;-36
2022/04/20 02:26:03;;;;;;;13.43;7.97;;;;;;;3.00;86.01;99596.88;5112171;28;20104;-37
2022/04/20 02:28:28;;;;;;;17.77;9.57;;;;;;;2.92;87.21;99607.38;5112312;28;20446;-36
2022/04/20 02:30:54;;;;;;;19.92;9.23;;;;;;;3.05;86.33;99606.94;5112287;28;20031;-36
2022/04/20 02:33:19;;;;;;;17.00;8.88;;;;;;;2.87;85.97;99594.69;5112220;28;20019;-36
2022/04/20 02:35:45;;;;;;;16.35;8.30;;;;;;;2.89;85.68;99602.41;5111881;28;20020;-36
2022/04/20 02:38:11;;;;;;;14.68;8.30;;;;;;;2.82;86.54;99598.75;5111977;28;20557;-36
2022/04/20 02:40:41;;;;;;;17.15;8.98;;;;;;;2.87;86.65;99596.50;5111664;28;20084;-49
2022/04/20 02:43:07;;;;;;;15.73;8.18;;;;;;;2.82;87.13;99601.38;5111947;28;20125;-49
2022/04/20 02:45:32;;;;;;;13.98;8.32;;;;;;;2.81;87.69;99603.19;5111561;28;20035;-48
2022/04/20 02:47:59;;;;;;;13.68;8.32;;;;;;;2.86;86.93;99608.00;5111739;28;20026;-46
2022/04/20 02:50:24;;;;;;;16.17;8.02;;;;;;;2.82;87.13;99610.13;5111341;28;20484;-46
2022/04/20 02:52:49;;;;;;;12.57;8.23;;;;;;;2.77;87.06;99607.13;5111605;28;20031;-46
2022/04/20 02:55:15;;;;;;;12.48;8.38;;;;;;;2.77;87.02;99606.31;5111289;28;20085;-49
2022/04/20 02:57:41;;;;;;;14.00;8.57;;;;;;;2.70;86.92;99603.47;5111266;28;20023;-46
2022/04/20 03:00:07;;;;;;;14.50;8.55;;;;;;;2.80;87.36;99619.97;5111218;28;20020;-46
2022/04/20 03:02:32;;;;;;;18.25;8.48;;;;;;;2.60;86.47;99619.34;5111683;28;20172;-45
2022/04/20 03:04:58;;;;;;;13.05;8.25;;;;;;;2.56;86.51;99622.44;5111234;28;20130;-47
2022/04/20 03:07:23;;;;;;;13.75;8.48;;;;;;;2.55;87.35;99626.84;5111636;28;20371;-46
2022/04/20 03:09:49;;;;;;;13.23;8.63;;;;;;;2.51;87.09;99623.75;5111207;28;20035;-45
2022/04/20 03:12:14;;;;;;;18.77;9.18;;;;;;;2.61;87.11;99620.16;5111133;28;20107;-45
2022/04/20 03:14:40;;;;;;;18.52;9.35;;;;;;;2.61;86.89;99630.66;5111360;28;20471;-45
2022/04/20 03:17:06;;;;;;;18.15;10.23;;;;;;;2.57;87.52;99626.72;5111382;28;20462;-46
2022/04/20 03:19:32;;;;;;;19.85;10.52;;;;;;;2.71;87.35;99624.34;5111422;28;20035;-46
2022/04/20 03:21:57;;;;;;;17.00;10.48;;;;;;;2.91;88.19;99621.47;5111053;28;20024;-45
2022/04/20 03:24:22;;;;;;;18.73;9.55;;;;;;;2.78;86.20;99623.72;5110753;28;20031;-47
2022/04/20 03:26:48;;;;;;;16.58;9.13;;;;;;;2.71;86.77;99632.22;5110956;28;20026;-47
2022/04/20 03:29:13;;;;;;;18.67;9.90;;;;;;;2.83;85.40;99630.16;5111456;28;20051;-47
2022/04/20 03:31:39;;;;;;;15.73;9.13;;;;;;;2.57;85.44;99631.97;5110588;28;20084;-47
2022/04/20 03:34:05;;;;;;;16.90;10.07;;;;;;;2.45;86.86;99620.88;5110414;28;20031;-47
2022/04/20 03:36:31;;;;;;;51.78;28.95;;;;;;;2.44;86.68;99637.66;5110660;28;20036;-47
2022/04/20 03:38:57;;;;;;;76.97;40.45;;;;;;;2.69;87.05;99636.81;5111472;28;20111;-48
2022/04/20 03:41:22;;;;;;;65.15;33.30;;;;;;;2.56;86.82;99641.66;5110944;28;20473;-49
2022/04/20 03:43:51;;;;;;;56.22;28.05;;;;;;;2.66;86.87;99639.72;5110271;28;20019;-46
2022/04/20 03:46:16;;;;;;;29.98;16.80;;;;;;;2.71;86.54;99647.16;5111297;28;20023;-48
2022/04/20 03:48:43;;;;;;;28.88;15.80;;;;;;;2.48;87.28;99650.31;5110731;28;20023;-48
2022/04/20 03:51:08;;;;;;;27.63;14.55;;;;;;;2.46;87.68;99638.31;5110870;28;20031;-48
2022/04/20 03:53:34;;;;;;;32.03;17.88;;;;;;;2.84;87.65;99644.94;5112503;28;20483;-50
2022/04/20 03:55:59;;;;;;;32.80;18.60;;;;;;;2.81;88.11;99647.88;5114719;28;20076;-48
2022/04/20 03:58:25;;;;;;;34.08;19.42;;;;;;;3.10;86.63;99650.19;5114600;28;20459;-50
2022/04/20 04:00:51;;;;;;;37.95;19.60;;;;;;;3.24;86.65;99648.75;5114537;28;20020;-47
2022/04/20 04:03:17;;;;;;;40.05;21.67;;;;;;;3.43;85.73;99657.38;5111629;28;20482;-49
2022/04/20 04:05:43;;;;;;;41.88;21.40;;;;;;;3.33;85.76;99654.84;5113798;28;20425;-48
2022/04/20 04:08:09;;;;;;;42.72;21.63;;;;;;;3.41;85.44;99651.44;5114652;28;20088;-47
2022/04/20 04:10:34;;;;;;;39.65;20.85;;;;;;;3.53;85.49;99652.81;5114394;28;20094;-46
2022/04/20 04:13:00;;;;;;;36.53;20.02;;;;;;;3.73;84.89;99653.31;5114546;28;20023;-47
2022/04/20 04:15:25;;;;;;;38.97;21.90;;;;;;;3.95;83.79;99651.91;5113663;28;20030;-49
2022/04/20 04:17:54;;;;;;;36.67;20.38;;;;;;;4.56;82.13;99652.41;5114604;28;20016;-47
2022/04/20 04:20:23;;;;;;;35.35;19.40;;;;;;;4.90;80.98;99659.25;5114647;28;20103;-46
2022/04/20 04:22:51;;;;;;;42.20;23.37;;;;;;;4.75;81.04;99653.03;5112291;28;20483;-46
2022/04/20 04:25:17;;;;;;;41.83;23.17;;;;;;;4.83;81.32;99643.28;5113808;28;20024;-47
2022/04/20 04:27:43;;;;;;;37.00;20.95;;;;;;;4.88;81.04;99654.16;5114820;28;20023;-46
2022/04/20 04:30:09;;;;;;;33.22;18.27;;;;;;;5.85;85.65;99661.81;5114007;28;20102;-48
2022/04/20 04:32:35;;;;;;;29.80;17.73;;;;;;;6.94;79.18;99672.19;5109348;28;20031;-46
2022/04/20 04:35:03;;;;;;;30.23;17.10;;;;;;;7.70;73.53;99663.19;5093410;28;20020;-46
2022/04/20 04:37:29;;;;;;;31.25;18.15;;;;;;;7.96;72.17;99662.66;5093505;28;20424;-46
2022/04/20 04:39:55;;;;;;;26.85;14.40;;;;;;;8.14;70.01;99651.59;5092984;28;20518;-48
2022/04/20 04:42:20;;;;;;;21.27;13.52;;;;;;;8.51;68.69;99668.25;5092827;28;20052;-48
2022/04/20 04:44:46;;;;;;;21.17;12.50;;;;;;;9.19;67.20;99663.19;5113057;28;20419;-48
2022/04/20 04:49:57;;;;;;;21.90;12.07;;;;;;;10.04;61.63;99662.91;5110740;28;20190;-46
2022/04/20 04:52:23;;;;;;;20.65;11.45;;;;;;;10.60;61.49;99667.88;5109611;28;20027;-49
2022/04/20 04:54:48;;;;;;;19.98;11.50;;;;;;;10.66;58.97;99661.75;5110554;28;20380;-47
2022/04/20 04:57:14;;;;;;;19.83;12.15;;;;;;;10.88;58.97;99666.84;5111278;28;20449;-46
2022/04/20 04:59:40;;;;;;;18.35;11.50;;;;;;;10.83;57.96;99659.44;5111163;28;20039;-46
2022/04/20 05:02:08;;;;;;;18.75;12.35;;;;;;;11.49;56.31;99669.13;5111236;28;20362;-48
2022/04/20 05:04:39;;;;;;;21.00;13.40;;;;;;;11.70;54.99;99669.84;5111616;28;20075;-46
2022/04/20 05:07:05;;;;;;;22.50;12.63;;;;;;;11.69;56.34;99665.53;5113316;28;20102;-46
2022/04/20 05:09:31;;;;;;;21.33;12.10;;;;;;;12.15;55.61;99661.84;5112465;28;20547;-50
2022/04/20 05:11:56;;;;;;;15.98;10.13;;;;;;;12.47;53.27;99657.28;5112438;28;20098;-50
2022/04/20 05:14:22;;;;;;;16.63;9.82;;;;;;;12.91;52.78;99663.47;5113460;28;20072;-48
2022/04/20 05:16:48;;;;;;;19.88;11.32;;;;;;;13.22;50.96;99661.72;5113229;28;20027;-51
2022/04/20 05:19:14;;;;;;;17.13;9.70;;;;;;;13.39;50.05;99656.63;5113221;28;20053;-52
2022/04/20 05:21:39;;;;;;;16.80;9.52;;;;;;;13.42;50.54;99661.53;5113706;28;20107;-48
2022/04/20 05:24:05;;;;;;;17.10;9.10;;;;;;;13.48;50.25;99657.94;5113209;28;20031;-49
2022/04/20 05:26:31;;;;;;;13.10;8.93;;;;;;;13.33;49.29;99654.84;5112779;28;20024;-48
2022/04/20 05:28:56;;;;;;;14.13;8.95;;;;;;;13.38;49.89;99657.63;5112831;28;20478;-48
2022/04/20 05:31:22;;;;;;;15.60;9.70;;;;;;;13.63;47.73;99659.41;5113231;28;20138;-49
2022/04/20 05:33:49;;;;;;;15.32;9.60;;;;;;;13.77;48.56;99655.53;5112920;28;20026;-51
2022/04/20 05:36:14;;;;;;;21.45;10.40;;;;;;;13.69;48.17;99656.66;5113045;28;20492;-49
2022/04/20 05:41:42;;;;;;;20.90;10.20;;;;;;;14.82;45.81;99645.28;5112446;28;20030;-48
2022/04/20 05:44:12;;;;;;;19.15;10.43;;;;;;;15.27;44.12;99643.81;5112717;28;20019;-48
2022/04/20 05:46:39;;;;;;;23.75;11.05;;;;;;;15.54;44.97;99639.53;5112506;28;20026;-48
2022/04/20 05:49:05;;;;;;;17.25;9.95;;;;;;;16.09;42.21;99631.97;5112389;28;20451;-51
2022/04/20 05:51:31;;;;;;;12.88;9.07;;;;;;;16.05;42.08;99631.66;5111703;28;20532;-48
2022/04/20 05:53:56;;;;;;;13.95;9.90;;;;;;;16.21;42.46;99632.72;5111961;28;20026;-48
2022/04/20 05:56:22;;;;;;;15.00;9.70;;;;;;;15.81;42.46;99647.06;5112610;28;20026;-48
2022/04/20 05:58:50;;;;;;;20.88;10.20;;;;;;;15.11;43.48;99643.47;5112037;28;20019;-50
2022/04/20 06:01:17;;;;;;;24.00;10.75;;;;;;;14.94;43.78;99645.25;5093726;28;20516;-50
2022/04/20 06:03:42;;;;;;;18.17;9.40;;;;;;;15.20;44.07;99642.06;5111649;28;20475;-49
2022/04/20 06:06:08;;;;;;;14.55;9.40;;;;;;;15.00;44.29;99631.75;5112369;28;20047;-49
2022/04/20 06:08:34;;;;;;;18.05;10.27;;;;;;;15.42;43.83;99633.38;5112494;28;20020;-50
2022/04/20 06:10:59;;;;;;;13.57;10.05;;;;;;;15.16;42.87;99616.00;5112327;28;20026;-48
2022/04/20 06:13:27;;;;;;;16.38;10.10;;;;;;;15.39;43.25;99623.16;5112041;28;20196;-50
2022/04/20 06:15:53;;;;;;;15.55;10.73;;;;;;;15.72;43.54;99613.56;5111368;28;20039;-48
2022/04/20 06:18:19;;;;;;;13.55;9.52;;;;;;;15.80;42.79;99607.84;5111859;28;20124;-50
2022/04/20 06:20:44;;;;;;;14.98;10.43;;;;;;;15.27;43.16;99595.56;5112123;28;20451;-51
2022/04/20 06:23:10;;;;;;;66.57;44.10;;;;;;;15.40;43.92;99595.28;5111822;28;20057;-50
2022/04/20 06:25:35;;;;;;;34.70;23.58;;;;;;;15.62;42.71;99600.78;5111737;28;20391;-52
2022/04/20 06:28:02;;;;;;;18.67;11.15;;;;;;;15.67;42.63;99598.22;5111954;28;20057;-49
2022/04/20 06:30:28;;;;;;;14.50;9.80;;;;;;;15.83;42.70;99580.53;5111723;27;20047;-51
2022/04/20 06:32:53;;;;;;;17.55;10.70;;;;;;;15.94;42.10;99579.66;5111873;28;20300;-53
2022/04/20 06:35:19;;;;;;;16.13;10.00;;;;;;;15.67;42.39;99584.81;5111417;28;20081;-51
2022/04/20 06:37:45;;;;;;;12.95;9.45;;;;;;;15.70;42.28;99592.34;5111120;28;20115;-49
2022/04/20 06:40:10;;;;;;;18.60;11.65;;;;;;;15.70;42.49;99591.56;5111047;28;20019;-49
2022/04/20 06:42:36;;;;;;;30.15;16.67;;;;;;;15.55;42.68;99584.03;5111157;28;20027;-49
2022/04/20 06:45:03;;;;;;;30.15;17.75;;;;;;;15.62;42.49;99588.19;5110768;28;20095;-50
2022/04/20 06:47:29;;;;;;;14.57;8.82;;;;;;;15.72;42.35;99589.44;5111295;28;20043;-50
2022/04/20 06:49:55;;;;;;;13.70;9.30;;;;;;;15.43;42.76;99602.84;5110924;28;20116;-50
2022/04/20 07:00:33;;;;;;;16.13;9.77;;;;;;;14.84;43.93;99613.69;5108852;28;20034;-49
2022/04/20 07:03:00;;;;;;;21.48;9.93;;;;;;;15.23;43.12;99614.81;5111104;28;20440;-51
2022/04/20 07:05:26;;;;;;;15.25;9.45;;;;;;;15.12;43.42;99612.97;5110566;28;20105;-50
2022/04/20 07:07:51;;;;;;;17.52;9.75;;;;;;;15.33;43.26;99611.50;5110834;28;20487;-50
2022/04/20 07:10:16;;;;;;;14.45;9.55;;;;;;;15.16;44.15;99611.44;5110606;28;20020;-52
2022/04/20 07:12:42;;;;;;;15.18;9.80;;;;;;;14.78;44.85;99611.97;5110259;28;20023;-52
2022/04/20 07:15:07;;;;;;;16.90;9.50;;;;;;;14.85;44.65;99616.16;5110367;28;20024;-51
2022/04/20 07:17:33;;;;;;;18.13;9.77;;;;;;;15.05;43.63;99617.63;5110421;28;20019;-50
2022/04/20 07:20:00;;;;;;;15.77;10.13;;;;;;;15.14;43.51;99610.88;5111038;28;20019;-49
2022/04/20 07:22:26;;;;;;;16.48;9.55;;;;;;;14.95;43.69;99610.19;5110722;28;20016;-52
2022/04/20 07:24:51;;;;;;;14.98;10.68;;;;;;;14.87;43.94;99607.88;5110275;28;20110;-51
2022/04/20 07:27:17;;;;;;;16.35;11.45;;;;;;;14.27;44.81;99603.53;5109414;28;20467;-50
2022/04/20 07:29:43;;;;;;;14.55;10.90;;;;;;;14.26;44.13;99605.41;5111256;28;20112;-48
2022/04/20 07:32:08;;;;;;;18.63;11.23;;;;;;;13.62;45.73;99609.66;5111441;28;20451;-48
2022/04/20 07:34:34;;;;;;;17.58;11.30;;;;;;;13.59;46.28;99613.56;5111140;28;20513;-48
2022/04/20 07:36:59;;;;;;;21.02;12.05;;;;;;;13.54;46.95;99609.97;5110868;28;20016;-49
2022/04/20 07:39:25;;;;;;;20.70;11.68;;;;;;;13.64;46.99;99603.03;5111225;28;20027;-49
2022/04/20 07:41:50;;;;;;;16.05;11.43;;;;;;;13.80;46.58;99590.88;5110744;28;20026;-48
2022/04/20 07:44:16;;;;;;;21.15;12.07;;;;;;;14.01;46.56;99604.75;5109667;28;20038;-51
2022/04/20 07:46:41;;;;;;;19.00;11.98;;;;;;;14.16;45.94;99604.34;5110797;28;20026;-48
2022/04/20 07:51:50;;;;;;;22.45;13.35;;;;;;;13.67;47.02;99591.09;5111310;28;20026;-50
2022/04/20 07:54:16;;;;;;;21.15;13.43;;;;;;;13.60;48.71;99593.03;5109989;28;20028;-50
2022/04/20 07:56:42;;;;;;;22.02;13.27;;;;;;;13.94;47.44;99570.09;5110555;28;20039;-48
2022/04/20 07:59:07;;;;;;;20.88;13.15;;;;;;;14.14;46.80;99579.66;5110725;28;20061;-48
2022/04/20 08:01:32;;;;;;;19.55;13.88;;;;;;;14.23;46.59;99579.09;5110253;28;20386;-51
2022/04/20 08:03:58;;;;;;;24.08;13.57;;;;;;;14.13;47.47;99589.56;5110035;28;20040;-50
2022/04/20 08:06:24;;;;;;;25.33;14.00;;;;;;;13.92;47.93;99596.25;5110594;28;20061;-49
2022/04/20 08:08:49;;;;;;;20.95;13.48;;;;;;;14.11;47.52;99601.53;5107367;28;20020;-49
2022/04/20 08:11:15;;;;;;;19.05;13.15;;;;;;;13.90;48.29;99609.06;5110397;28;20049;-49
2022/04/20 08:16:24;;;;;;;19.13;11.65;;;;;;;13.43;49.01;99604.34;5109873;28;20043;-52
2022/04/20 08:18:50;;;;;;;17.50;11.38;;;;;;;13.63;49.16;99600.56;5110003;28;20027;-49
2022/04/20 08:21:15;;;;;;;21.48;11.07;;;;;;;13.32;50.00;99598.94;5110224;28;20103;-50
2022/04/20 08:23:40;;;;;;;16.25;10.93;;;;;;;13.33;50.05;99603.22;5110069;28;20454;-48
2022/04/20 08:26:06;;;;;;;17.08;11.30;;;;;;;13.27;49.87;99596.91;5110064;28;20471;-48
2022/04/20 08:28:32;;;;;;;16.05;10.77;;;;;;;13.52;49.64;99591.47;5110664;28;20071;-48
2022/04/20 08:30:58;;;;;;;16.30;11.75;;;;;;;13.73;48.84;99600.84;5110613;28;20540;-48
2022/04/20 08:33:23;;;;;;;21.15;12.73;;;;;;;13.46;49.41;99598.56;5110642;28;20552;-48
2022/04/20 08:35:49;;;;;;;18.10;13.02;;;;;;;13.27;49.65;99589.72;5109787;28;20027;-49
2022/04/20 08:38:14;;;;;;;19.23;12.77;;;;;;;13.35;49.77;99593.97;5110359;28;20036;-49
2022/04/20 08:40:40;;;;;;;18.10;12.68;;;;;;;13.25;50.12;99607.81;5113497;28;20027;-49
2022/04/20 08:43:06;;;;;;;20.85;13.23;;;;;;;12.86;51.90;99601.88;5113776;28;20024;-50
2022/04/20 08:45:37;;;;;;;23.65;13.18;;;;;;;13.02;51.21;99616.53;5113485;28;20027;-51
2022/04/20 08:48:03;;;;;;;18.77;13.63;;;;;;;12.67;52.84;99610.91;5113221;28;20047;-48
2022/04/20 08:50:29;;;;;;;21.35;13.48;;;;;;;12.80;52.57;99612.66;5113073;28;20118;-51
2022/04/20 08:52:55;;;;;;;20.77;13.52;;;;;;;12.63;53.04;99601.72;5113008;28;20027;-48
2022/04/20 08:55:21;;;;;;;20.30;14.13;;;;;;;12.62;53.13;99592.91;5113158;28;20030;-49
2022/04/20 08:57:49;;;;;;;18.35;13.10;;;;;;;12.18;54.52;99592.03;5114000;28;20023;-49
2022/04/20 09:00:28;;;;;;;19.13;13.60;;;;;;;12.42;53.78;99589.59;5113627;28;20019;-51
2022/04/20 09:03:00;;;;;;;18.50;13.95;;;;;;;12.55;54.24;99589.47;5111226;28;20095;-51
2022/04/20 09:05:28;;;;;;;21.95;14.23;;;;;;;12.62;53.77;99578.72;5112093;28;20047;-47
2022/04/20 09:07:54;;;;;;;18.17;14.10;;;;;;;12.85;53.26;99583.41;5112223;28;20011;-47
2022/04/20 09:10:20;;;;;;;17.63;13.75;;;;;;;13.03;52.47;99590.63;5112223;28;20122;-48
2022/04/20 09:13:00;;;;;;;19.48;14.25;;;;;;;13.06;51.87;99588.31;5112027;28;20451;-48
2022/04/20 09:15:32;;;;;;;17.58;13.27;;;;;;;13.11;52.49;99584.97;5110682;28;20055;-47
2022/04/20 09:18:01;;;;;;;18.42;13.18;;;;;;;13.27;52.25;99587.03;5112339;28;20028;-50
2022/04/20 09:20:27;;;;;;;20.98;15.15;;;;;;;13.15;51.81;99582.66;5109510;28;20019;-49
2022/04/20 09:23:07;;;;;;;22.30;13.80;;;;;;;13.29;51.61;99594.84;5112767;28;20027;-50
2022/04/20 09:25:45;;;;;;;20.75;13.88;;;;;;;13.35;51.50;99585.13;5112379;28;20135;-50
2022/04/20 09:28:11;;;;;;;19.13;13.32;;;;;;;13.32;51.78;99589.06;5112842;28;20055;-51
2022/04/20 09:30:38;;;;;;;20.42;13.82;;;;;;;13.30;51.85;99586.59;5112884;28;20027;-49
2022/04/20 09:33:09;;;;;;;22.25;14.18;;;;;;;13.13;52.91;99580.22;5112806;28;20039;-49
2022/04/20 09:35:47;;;;;;;18.48;14.05;;;;;;;13.24;51.85;99573.31;5112784;28;20031;-49
2022/04/20 09:38:17;;;;;;;20.90;14.52;;;;;;;13.35;51.70;99567.22;5112911;28;20024;-51
2022/04/20 09:40:43;;;;;;;20.25;14.48;;;;;;;13.35;51.80;99561.88;5112894;28;20027;-51
2022/04/20 09:43:19;;;;;;;18.13;14.38;;;;;;;12.96;52.91;99566.63;5111629;28;20452;-51
2022/04/20 09:46:03;;;;;;;19.27;14.73;;;;;;;13.14;52.59;99565.81;5110772;28;20053;-51
2022/04/20 09:51:15;;;;;;;23.42;16.85;;;;;;;12.42;54.55;99566.38;5110869;28;20061;-50
2022/04/20 09:53:42;;;;;;;24.83;16.77;;;;;;;12.39;54.42;99553.47;5111987;28;20032;-49
2022/04/20 09:56:27;;;;;;;25.50;18.10;;;;;;;12.43;54.65;99553.84;5110401;28;20095;-51
2022/04/20 09:59:04;;;;;;;22.90;17.27;;;;;;;12.41;54.28;99535.38;5110257;28;20055;-49
2022/04/20 10:01:34;;;;;;;25.58;17.88;;;;;;;12.29;54.77;99540.63;5110133;28;20023;-50
2022/04/20 10:04:03;;;;;;;25.58;17.92;;;;;;;12.15;55.20;99538.31;5110798;28;20082;-51
2022/04/20 10:06:29;;;;;;;25.23;16.27;;;;;;;12.23;54.20;99535.38;5111240;28;20180;-48
2022/04/20 10:08:55;;;;;;;23.00;16.05;;;;;;;12.19;54.20;99536.84;5111282;28;20201;-51
2022/04/20 10:11:22;;;;;;;22.75;16.55;;;;;;;12.12;55.36;99520.91;5112240;28;20039;-48
2022/04/20 10:16:05;;;;;;;23.13;16.27;;;;;;;12.27;54.30;99516.03;5111764;28;20084;-49
2022/04/20 10:16:39;;;;;;;24.58;17.15;;;;;;;12.41;54.09;99522.03;5111742;28;20460;-50
2022/04/20 10:19:07;;;;;;;26.23;17.27;;;;;;;12.47;54.59;99518.50;5110944;28;20490;-48
2022/04/20 10:21:43;;;;;;;23.00;17.40;;;;;;;12.08;56.03;99501.03;5111269;28;20084;-49
2022/04/20 10:24:15;;;;;;;22.70;16.13;;;;;;;12.36;54.70;99499.75;5111219;28;20100;-50
2022/04/20 10:26:41;;;;;;;21.70;15.85;;;;;;;12.69;54.05;99484.16;5111404;28;20110;-49
2022/04/20 10:29:16;;;;;;;25.58;17.00;;;;;;;12.89;53.35;99499.16;5111404;28;20107;-52
2022/04/20 10:31:58;;;;;;;23.52;15.63;;;;;;;12.93;53.42;99499.50;5111203;28;20047;-50
2022/04/20 10:34:25;;;;;;;21.35;16.15;;;;;;;12.84;52.16;99489.13;5111303;28;20038;-49
2022/04/20 10:37:01;;;;;;;24.17;16.95;;;;;;;12.75;53.08;99489.66;5111631;28;20408;-49
2022/04/20 10:39:33;;;;;;;21.52;15.90;;;;;;;12.77;53.57;99483.03;5111168;28;20571;-49
2022/04/20 10:42:19;;;;;;;18.75;14.52;;;;;;;12.75;51.91;99482.47;5111039;28;20071;-52
2022/04/20 10:45:06;;;;;;;20.70;13.95;;;;;;;12.91;50.50;99486.41;5090884;28;20402;-50
2022/04/20 10:47:42;;;;;;;21.08;14.07;;;;;;;13.05;50.86;99479.00;5090826;28;20051;-51
2022/04/20 10:50:21;;;;;;;20.95;14.25;;;;;;;12.32;53.58;99486.84;5090927;28;20081;-52
2022/04/20 10:53:03;;;;;;;19.30;14.00;;;;;;;12.60;52.66;99474.03;5090679;28;20122;-48
2022/04/20 10:55:31;;;;;;;22.35;14.70;;;;;;;12.87;52.18;99479.84;5090413;28;20035;-49
2022/04/20 10:58:01;;;;;;;18.98;13.65;;;;;;;13.15;50.63;99465.13;5090731;28;20035;-48
2022/04/20 11:00:33;;;;;;;17.58;13.48;;;;;;;13.10;50.47;99471.16;5090074;28;20028;-51
2022/04/20 11:03:06;;;;;;;19.05;14.13;;;;;;;13.23;49.69;99457.59;5090827;28;20476;-49
2022/04/20 11:05:41;;;;;;;20.50;13.10;;;;;;;12.94;50.37;99455.75;5090595;28;20052;-48
2022/04/20 11:08:30;;;;;;;19.13;13.98;;;;;;;13.02;50.36;99448.25;5093540;28;20011;-50
2022/04/20 11:19:12;;;;;;;23.17;15.45;;;;;;;12.61;51.12;99419.59;5111137;28;20027;-50
2022/04/20 11:21:51;;;;;;;21.42;15.10;;;;;;;12.38;51.78;99385.59;5110932;28;20049;-48
2022/04/20 11:24:26;;;;;;;24.90;15.68;;;;;;;12.93;51.88;99414.03;5110624;28;20023;-48
2022/04/20 11:26:52;;;;;;;22.58;14.95;;;;;;;13.08;52.67;99409.13;5110509;28;20504;-48
2022/04/20 11:29:21;;;;;;;25.38;14.82;;;;;;;13.31;52.19;99408.38;5110901;28;20051;-51
2022/04/20 11:32:03;;;;;;;24.88;15.75;;;;;;;13.55;50.37;99398.53;5110456;28;20019;-38
2022/04/20 11:34:34;;;;;;;20.27;13.82;;;;;;;13.58;48.30;99402.63;5110555;28;20598;-38
2022/04/20 11:37:01;;;;;;;27.45;15.02;;;;;;;13.00;50.62;99391.53;5110126;28;20047;-38
2022/04/20 11:39:28;;;;;;;20.95;13.45;;;;;;;12.94;50.79;99395.13;5110519;28;20031;-38
2022/04/20 11:41:56;;;;;;;22.20;14.07;;;;;;;11.87;54.17;99388.38;5110522;28;20088;-38
2022/04/20 11:44:25;;;;;;;21.08;14.18;;;;;;;11.53;53.75;99382.53;5110150;28;20024;-38
2022/04/20 11:46:57;;;;;;;19.38;13.68;;;;;;;11.12;55.44;99385.75;5110612;28;20091;-38
2022/04/20 11:49:30;;;;;;;21.23;14.32;;;;;;;10.60;58.12;99385.81;5110753;28;20019;-38
2022/04/20 11:51:57;;;;;;;22.00;15.27;;;;;;;10.67;58.39;99378.63;5110339;28;20031;-38
2022/04/20 11:54:24;;;;;;;21.35;14.63;;;;;;;10.99;57.44;99356.53;5109878;28;20030;-38
2022/04/20 11:56:50;;;;;;;21.90;15.18;;;;;;;11.50;56.48;99364.31;5110649;28;20111;-37
2022/04/20 11:59:21;;;;;;;21.08;15.75;;;;;;;11.60;55.90;99361.16;5110576;28;20111;-38
2022/04/20 12:01:48;;;;;;;23.85;15.48;;;;;;;11.26;56.77;99357.16;5110174;28;20023;-37
2022/04/20 12:04:15;;;;;;;22.52;15.70;;;;;;;11.38;57.16;99346.59;5109437;28;20044;-39
2022/04/20 12:06:52;;;;;;;23.75;15.63;;;;;;;11.79;55.89;99355.84;5109909;28;20035;-39